Time;durP1;ratioP1;P1;durP2;ratioP2;P2;SDS_P1;SDS_P2;PMS_P1;PMS_P2;Temp;Humidity;BMP_temperature;BMP_pressure;BME280_temperature;BME280_humidity;BME280_pressure;Samples;Min_cycle;Max_cycle;Signal;HPM_P1;HPM_P2
2022/04/23 00:00:20;;;;;;;;;;;23.30;39.50;;;;;;4956591;28;19989;-67
2022/04/23 00:02:47;;;;;;;;;;;23.30;39.50;;;;;;4956467;29;19931;-67
2022/04/23 00:05:14;;;;;;;;;;;23.30;39.50;;;;;;4956412;28;19933;-67
2022/04/23 00:07:41;;;;;;;;;;;23.30;39.40;;;;;;4956299;29;19965;-67
2022/04/23 00:10:08;;;;;;;;;;;23.30;39.50;;;;;;4956682;28;19950;-68
2022/04/23 00:12:36;;;;;;;;;;;23.30;39.40;;;;;;4956337;28;19994;-68
2022/04/23 00:15:06;;;;;;;;;;;23.30;39.40;;;;;;4956705;28;19980;-67
2022/04/23 00:17:33;;;;;;;;;;;23.40;39.50;;;;;;4956244;28;19927;-67
2022/04/23 00:20:00;;;;;;;;;;;23.40;39.40;;;;;;4954923;28;19931;-68
2022/04/23 00:22:27;;;;;;;;;;;23.40;39.40;;;;;;4958962;29;19930;-67
2022/04/23 00:24:54;;;;;;;;;;;23.40;39.40;;;;;;4959437;29;19926;-68
2022/04/23 00:27:21;;;;;;;;;;;23.40;39.40;;;;;;4959537;28;19988;-67
2022/04/23 00:29:48;;;;;;;;;;;23.40;39.30;;;;;;4958224;29;19969;-67
2022/04/23 00:32:15;;;;;;;;;;;23.40;39.30;;;;;;4959939;29;19934;-67
2022/04/23 00:34:42;;;;;;;;;;;23.40;39.30;;;;;;4959655;28;20287;-68
2022/04/23 00:37:10;;;;;;;;;;;23.40;39.30;;;;;;4959517;29;20393;-68
2022/04/23 00:39:37;;;;;;;;;;;23.40;39.30;;;;;;4959509;28;20377;-68
2022/04/23 00:42:08;;;;;;;;;;;23.40;39.30;;;;;;4958374;29;19936;-67
2022/04/23 00:44:37;;;;;;;;;;;23.40;39.30;;;;;;4959403;28;19926;-68
2022/04/23 00:47:06;;;;;;;;;;;23.40;39.30;;;;;;4959641;28;19990;-68
2022/04/23 00:49:33;;;;;;;;;;;23.40;39.30;;;;;;4959027;29;19980;-68
2022/04/23 00:52:01;;;;;;;;;;;23.40;39.20;;;;;;4959644;29;19930;-68
2022/04/23 00:54:28;;;;;;;;;;;23.40;39.30;;;;;;4958838;29;19927;-68
2022/04/23 00:56:56;;;;;;;;;;;23.40;39.20;;;;;;4959370;29;19927;-68
2022/04/23 00:59:23;;;;;;;;;;;23.40;39.20;;;;;;4958855;28;19926;-67
2022/04/23 01:01:53;;;;;;;;;;;23.30;39.20;;;;;;4959111;29;19984;-67
2022/04/23 01:04:20;;;;;;;;;;;23.40;39.30;;;;;;4958952;29;20389;-67
2022/04/23 01:06:47;;;;;;;;;;;23.40;39.30;;;;;;4958872;29;19934;-67
2022/04/23 01:09:14;;;;;;;;;;;23.30;39.20;;;;;;4959125;28;19970;-67
2022/04/23 01:11:42;;;;;;;;;;;23.30;39.20;;;;;;4959003;28;19976;-67
2022/04/23 01:14:09;;;;;;;;;;;23.30;39.20;;;;;;4958855;29;19926;-67
2022/04/23 01:16:35;;;;;;;;;;;23.30;39.30;;;;;;4941870;28;19927;-67
2022/04/23 01:19:02;;;;;;;;;;;23.30;39.30;;;;;;4958752;29;19926;-67
2022/04/23 01:21:30;;;;;;;;;;;23.30;39.30;;;;;;4941824;29;19977;-68
2022/04/23 01:23:58;;;;;;;;;;;23.30;39.40;;;;;;4959076;28;19930;-67
2022/04/23 01:26:26;;;;;;;;;;;23.30;39.40;;;;;;4958945;29;19934;-67
2022/04/23 01:28:54;;;;;;;;;;;23.30;39.40;;;;;;4959715;28;19926;-67
2022/04/23 01:31:21;;;;;;;;;;;23.20;39.40;;;;;;4961034;28;20022;-68
2022/04/23 01:33:48;;;;;;;;;;;23.20;39.40;;;;;;4943956;29;20290;-67
2022/04/23 01:36:16;;;;;;;;;;;23.20;39.40;;;;;;4961028;29;19992;-67
2022/04/23 01:38:43;;;;;;;;;;;23.20;39.30;;;;;;4958662;29;19926;-67
2022/04/23 01:41:10;;;;;;;;;;;23.30;39.40;;;;;;4940937;29;20382;-67
2022/04/23 01:43:37;;;;;;;;;;;23.30;39.40;;;;;;4941853;29;19926;-68
2022/04/23 01:46:04;;;;;;;;;;;23.30;39.40;;;;;;4958493;29;19930;-67
2022/04/23 01:48:31;;;;;;;;;;;23.30;39.30;;;;;;4941186;28;19933;-67
2022/04/23 01:50:58;;;;;;;;;;;23.30;39.30;;;;;;4958760;28;20379;-67
2022/04/23 01:53:25;;;;;;;;;;;23.30;39.30;;;;;;4958504;29;19927;-68
2022/04/23 01:55:53;;;;;;;;;;;23.30;39.30;;;;;;4957433;28;19930;-67
2022/04/23 01:58:24;;;;;;;;;;;23.30;39.30;;;;;;4958285;28;20417;-67
2022/04/23 02:00:51;;;;;;;;;;;23.30;39.20;;;;;;4958353;29;19927;-67
2022/04/23 02:03:18;;;;;;;;;;;23.30;39.30;;;;;;4958253;28;19930;-67
2022/04/23 02:05:45;;;;;;;;;;;23.30;39.20;;;;;;4958380;29;19977;-67
2022/04/23 02:08:16;;;;;;;;;;;23.30;39.20;;;;;;4957974;29;19926;-68
2022/04/23 02:10:43;;;;;;;;;;;23.30;39.20;;;;;;4941041;29;19933;-68
2022/04/23 02:13:11;;;;;;;;;;;23.30;39.20;;;;;;4957842;29;20440;-68
2022/04/23 02:15:38;;;;;;;;;;;23.30;39.20;;;;;;4958223;29;19926;-68
2022/04/23 02:18:06;;;;;;;;;;;23.30;39.20;;;;;;4958117;29;19934;-67
2022/04/23 02:20:33;;;;;;;;;;;23.30;39.70;;;;;;4958186;28;19965;-68
2022/04/23 02:23:00;;;;;;;;;;;23.30;39.20;;;;;;4957900;29;20017;-67
2022/04/23 02:25:26;;;;;;;;;;;23.30;39.10;;;;;;4957949;29;19961;-67
2022/04/23 02:27:53;;;;;;;;;;;23.30;39.20;;;;;;4958143;29;19989;-67
2022/04/23 02:30:21;;;;;;;;;;;23.30;39.20;;;;;;4958143;29;19973;-67
2022/04/23 02:32:49;;;;;;;;;;;23.30;39.20;;;;;;4957724;28;20428;-67
2022/04/23 02:35:17;;;;;;;;;;;23.30;39.20;;;;;;4957585;28;20009;-68
2022/04/23 02:37:48;;;;;;;;;;;23.20;39.20;;;;;;4957919;28;19927;-67
2022/04/23 02:40:15;;;;;;;;;;;23.20;39.30;;;;;;4956432;29;19927;-67
2022/04/23 02:42:42;;;;;;;;;;;23.20;39.30;;;;;;4940395;29;19976;-67
2022/04/23 02:45:11;;;;;;;;;;;23.20;39.30;;;;;;4955560;28;19926;-67
2022/04/23 02:47:43;;;;;;;;;;;23.20;39.40;;;;;;4957639;28;19934;-67
2022/04/23 02:50:10;;;;;;;;;;;23.20;39.40;;;;;;4957574;28;19957;-68
2022/04/23 02:52:37;;;;;;;;;;;23.20;39.40;;;;;;4957234;29;19957;-67
2022/04/23 02:55:05;;;;;;;;;;;23.20;39.40;;;;;;4957749;28;20271;-68
2022/04/23 02:57:32;;;;;;;;;;;23.10;39.40;;;;;;4957515;29;19927;-67
2022/04/23 03:00:00;;;;;;;;;;;23.10;39.40;;;;;;4957585;29;19973;-67
2022/04/23 03:02:28;;;;;;;;;;;23.10;39.90;;;;;;4957403;28;20312;-67
2022/04/23 03:04:55;;;;;;;;;;;23.10;39.40;;;;;;4957159;29;19978;-67
2022/04/23 03:07:22;;;;;;;;;;;23.10;39.40;;;;;;4940415;29;19934;-67
2022/04/23 03:09:49;;;;;;;;;;;23.20;39.40;;;;;;4957048;29;19926;-67
2022/04/23 03:12:16;;;;;;;;;;;23.20;39.40;;;;;;4957111;29;19926;-67
2022/04/23 03:14:43;;;;;;;;;;;23.20;39.60;;;;;;4957212;29;20345;-67
2022/04/23 03:17:10;;;;;;;;;;;23.20;39.30;;;;;;4957080;29;20353;-67
2022/04/23 03:19:37;;;;;;;;;;;23.20;39.30;;;;;;4957267;29;19982;-67
2022/04/23 03:22:04;;;;;;;;;;;23.20;39.20;;;;;;4956787;29;19990;-67
2022/04/23 03:24:31;;;;;;;;;;;23.20;39.20;;;;;;4956832;29;19926;-67
2022/04/23 03:26:58;;;;;;;;;;;23.20;39.20;;;;;;4957020;28;19927;-67
2022/04/23 03:29:25;;;;;;;;;;;23.20;39.20;;;;;;4956735;29;20033;-67
2022/04/23 03:31:52;;;;;;;;;;;23.20;39.20;;;;;;4959319;29;20390;-67
2022/04/23 03:34:19;;;;;;;;;;;23.20;39.20;;;;;;4960612;29;20005;-67
2022/04/23 03:36:46;;;;;;;;;;;23.20;39.10;;;;;;4942804;28;19953;-67
2022/04/23 03:39:13;;;;;;;;;;;23.20;39.20;;;;;;4956673;28;20020;-67
2022/04/23 03:41:40;;;;;;;;;;;23.20;39.20;;;;;;4956526;29;19973;-68
2022/04/23 03:44:07;;;;;;;;;;;23.20;39.20;;;;;;4956954;29;20005;-67
2022/04/23 03:46:34;;;;;;;;;;;23.20;39.20;;;;;;4956965;29;19958;-67
2022/04/23 03:49:01;;;;;;;;;;;23.20;39.10;;;;;;4939748;28;19977;-67
2022/04/23 03:51:28;;;;;;;;;;;23.20;39.10;;;;;;4956842;29;20009;-67
2022/04/23 03:53:55;;;;;;;;;;;23.20;39.10;;;;;;4956645;29;20040;-67
2022/04/23 03:56:22;;;;;;;;;;;23.20;39.60;;;;;;4956583;28;19926;-67
2022/04/23 03:58:48;;;;;;;;;;;23.20;39.10;;;;;;4956214;29;20460;-67
2022/04/23 04:01:15;;;;;;;;;;;23.20;39.10;;;;;;4956270;29;19980;-67
2022/04/23 04:03:43;;;;;;;;;;;23.20;39.10;;;;;;4956423;29;19953;-67
2022/04/23 04:06:10;;;;;;;;;;;23.20;39.10;;;;;;4956636;29;19926;-67
2022/04/23 04:08:37;;;;;;;;;;;23.20;39.10;;;;;;4956488;28;19926;-67
2022/04/23 04:11:04;;;;;;;;;;;23.20;39.00;;;;;;4955996;29;20021;-67
2022/04/23 04:13:31;;;;;;;;;;;23.20;39.10;;;;;;4939473;29;19976;-67
2022/04/23 04:15:58;;;;;;;;;;;23.20;39.10;;;;;;4939212;28;20371;-67
2022/04/23 04:18:25;;;;;;;;;;;23.20;39.10;;;;;;4956429;29;19926;-67
2022/04/23 04:20:53;;;;;;;;;;;23.20;39.20;;;;;;4956594;28;19927;-67
2022/04/23 04:23:20;;;;;;;;;;;23.10;39.10;;;;;;4956088;29;19973;-67
2022/04/23 04:25:47;;;;;;;;;;;23.10;39.20;;;;;;4956042;29;19926;-67
2022/04/23 04:28:14;;;;;;;;;;;23.10;39.20;;;;;;4955992;29;20397;-67
2022/04/23 04:33:29;;;;;;;;;;;23.10;39.20;;;;;;4941927;29;19977;-67
2022/04/23 04:35:56;;;;;;;;;;;23.10;39.20;;;;;;4939146;28;19926;-68
2022/04/23 04:38:23;;;;;;;;;;;23.10;39.20;;;;;;4955871;29;19980;-67
2022/04/23 04:40:50;;;;;;;;;;;23.10;39.20;;;;;;4956018;29;19934;-67
2022/04/23 04:43:17;;;;;;;;;;;23.10;39.20;;;;;;4939279;29;19931;-67
2022/04/23 04:45:44;;;;;;;;;;;23.20;39.20;;;;;;4956207;29;20010;-67
2022/04/23 04:48:11;;;;;;;;;;;23.20;39.20;;;;;;4956061;29;19934;-67
2022/04/23 04:50:38;;;;;;;;;;;23.20;39.10;;;;;;4956175;29;19933;-67
2022/04/23 04:53:05;;;;;;;;;;;23.20;39.10;;;;;;4955862;29;20041;-68
2022/04/23 04:55:33;;;;;;;;;;;23.20;39.10;;;;;;4955839;29;20393;-67
2022/04/23 04:58:00;;;;;;;;;;;23.20;39.60;;;;;;4955589;29;20387;-67
2022/04/23 05:00:28;;;;;;;;;;;23.20;39.00;;;;;;4955756;29;19926;-68
2022/04/23 05:02:57;;;;;;;;;;;23.20;39.00;;;;;;4955229;29;19927;-67
2022/04/23 05:05:24;;;;;;;;;;;23.20;38.90;;;;;;4955738;29;19934;-67
2022/04/23 05:07:51;;;;;;;;;;;23.30;38.90;;;;;;4957114;28;19976;-67
2022/04/23 05:10:18;;;;;;;;;;;23.30;38.80;;;;;;4958980;29;19926;-67
2022/04/23 05:12:45;;;;;;;;;;;23.30;38.80;;;;;;4958943;29;19973;-67
2022/04/23 05:15:12;;;;;;;;;;;23.30;38.70;;;;;;4958777;28;19927;-67
2022/04/23 05:17:39;;;;;;;;;;;23.30;38.60;;;;;;4959171;29;20060;-67
2022/04/23 05:20:06;;;;;;;;;;;23.40;38.60;;;;;;4958987;29;19962;-67
2022/04/23 05:22:33;;;;;;;;;;;23.40;38.50;;;;;;4942119;29;19974;-67
2022/04/23 05:25:00;;;;;;;;;;;23.40;38.40;;;;;;4957730;28;19931;-67
2022/04/23 05:27:27;;;;;;;;;;;23.50;38.30;;;;;;4942020;29;19928;-67
2022/04/23 05:29:54;;;;;;;;;;;23.50;38.30;;;;;;4958493;28;19926;-67
2022/04/23 05:32:21;;;;;;;;;;;23.50;38.30;;;;;;4958887;29;19927;-67
2022/04/23 05:34:53;;;;;;;;;;;23.50;38.30;;;;;;4958271;29;19933;-67
2022/04/23 05:37:20;;;;;;;;;;;23.50;38.30;;;;;;4958354;29;19930;-67
2022/04/23 05:39:47;;;;;;;;;;;23.50;38.30;;;;;;4961168;29;19933;-67
2022/04/23 05:42:14;;;;;;;;;;;23.50;38.30;;;;;;4936330;29;19985;-63
2022/04/23 05:44:41;;;;;;;;;;;23.50;38.30;;;;;;4949716;29;19926;-65
2022/04/23 05:47:08;;;;;;;;;;;23.50;38.30;;;;;;4945068;29;20349;-63
2022/04/23 05:49:39;;;;;;;;;;;23.50;38.20;;;;;;4949110;29;19930;-63
2022/04/23 05:52:21;;;;;;;;;;;23.60;38.20;;;;;;4948864;29;20348;-63
2022/04/23 05:54:48;;;;;;;;;;;23.60;38.20;;;;;;4949368;29;20021;-64
2022/04/23 05:57:15;;;;;;;;;;;23.60;38.10;;;;;;4948784;29;20370;-63
2022/04/23 05:59:43;;;;;;;;;;;23.70;38.10;;;;;;4931578;29;20435;-63
2022/04/23 06:02:13;;;;;;;;;;;23.70;38.00;;;;;;4949417;28;19980;-63
2022/04/23 06:04:41;;;;;;;;;;;23.80;38.00;;;;;;4948338;28;19940;-63
2022/04/23 06:07:08;;;;;;;;;;;23.80;37.90;;;;;;4948763;29;19974;-63
2022/04/23 06:09:35;;;;;;;;;;;23.90;37.90;;;;;;4929469;29;20011;-64
2022/04/23 06:12:02;;;;;;;;;;;23.90;37.80;;;;;;4930055;28;20576;-63
2022/04/23 06:14:29;;;;;;;;;;;23.90;37.70;;;;;;4930129;28;19970;-63
2022/04/23 06:16:56;;;;;;;;;;;23.90;37.70;;;;;;4929799;29;20358;-64
2022/04/23 06:19:23;;;;;;;;;;;23.90;37.60;;;;;;4924578;28;19935;-63
2022/04/23 06:21:50;;;;;;;;;;;24.00;37.70;;;;;;4929462;28;20436;-64
2022/04/23 06:24:18;;;;;;;;;;;24.00;37.60;;;;;;4929714;29;20278;-63
2022/04/23 06:26:48;;;;;;;;;;;24.00;37.50;;;;;;4929276;28;20399;-63
2022/04/23 06:29:15;;;;;;;;;;;24.10;37.60;;;;;;4929497;29;19927;-63
2022/04/23 06:31:42;;;;;;;;;;;24.10;37.60;;;;;;4928398;28;20437;-63
2022/04/23 06:34:09;;;;;;;;;;;24.10;37.50;;;;;;4929510;29;19927;-63
2022/04/23 06:36:40;;;;;;;;;;;24.10;37.40;;;;;;4929084;29;19926;-63
2022/04/23 06:39:07;;;;;;;;;;;24.10;37.40;;;;;;4929928;29;19927;-63
2022/04/23 06:41:34;;;;;;;;;;;24.10;37.40;;;;;;4929258;28;20054;-64
2022/04/23 06:44:01;;;;;;;;;;;24.10;37.30;;;;;;4929156;28;20026;-64
2022/04/23 06:46:28;;;;;;;;;;;24.20;37.30;;;;;;4928956;29;19926;-64
2022/04/23 06:48:56;;;;;;;;;;;24.20;37.30;;;;;;4928967;29;19974;-64
2022/04/23 06:51:23;;;;;;;;;;;24.20;37.20;;;;;;4924820;28;20453;-64
2022/04/23 06:53:50;;;;;;;;;;;24.30;37.30;;;;;;4928445;29;19970;-64
2022/04/23 06:56:17;;;;;;;;;;;24.30;37.20;;;;;;4927811;28;19970;-64
2022/04/23 06:58:46;;;;;;;;;;;24.30;37.10;;;;;;4929395;28;19927;-64
2022/04/23 07:01:13;;;;;;;;;;;24.30;37.10;;;;;;4927710;28;19966;-64
2022/04/23 07:03:40;;;;;;;;;;;24.30;37.00;;;;;;4928524;28;19927;-64
2022/04/23 07:06:07;;;;;;;;;;;24.40;37.10;;;;;;4928842;28;20087;-64
2022/04/23 07:08:34;;;;;;;;;;;24.40;37.00;;;;;;4929240;28;19926;-64
2022/04/23 07:11:01;;;;;;;;;;;24.50;37.00;;;;;;4928575;29;20017;-64
2022/04/23 07:13:28;;;;;;;;;;;24.50;36.90;;;;;;4928842;29;19930;-64
2022/04/23 07:15:55;;;;;;;;;;;24.50;36.90;;;;;;4928483;29;19927;-65
2022/04/23 07:18:22;;;;;;;;;;;24.60;36.80;;;;;;4927318;28;20344;-64
2022/04/23 07:20:49;;;;;;;;;;;24.60;36.70;;;;;;4926550;28;20339;-64
2022/04/23 07:26:06;;;;;;;;;;;24.70;36.60;;;;;;4928738;29;20458;-64
2022/04/23 07:28:33;;;;;;;;;;;24.80;36.50;;;;;;4928388;28;19992;-65
2022/04/23 07:31:03;;;;;;;;;;;24.80;36.40;;;;;;4928656;28;20394;-64
2022/04/23 07:39:04;;;;;;;;;;;25.00;36.20;;;;;;4928608;29;19981;-64
2022/04/23 07:41:31;;;;;;;;;;;25.00;36.10;;;;;;4928479;29;19927;-64
2022/04/23 07:43:58;;;;;;;;;;;25.00;36.00;;;;;;4928315;29;19970;-64
2022/04/23 07:46:25;;;;;;;;;;;25.00;36.00;;;;;;4928407;28;20370;-64
2022/04/23 07:48:52;;;;;;;;;;;25.10;36.00;;;;;;4928065;29;19931;-64
2022/04/23 07:51:20;;;;;;;;;;;25.10;35.90;;;;;;4928277;28;19978;-65
2022/04/23 07:53:46;;;;;;;;;;;25.10;35.80;;;;;;4923936;29;20387;-64
2022/04/23 07:56:14;;;;;;;;;;;25.20;35.80;;;;;;4927992;29;19973;-64
2022/04/23 07:58:41;;;;;;;;;;;25.20;35.70;;;;;;4928203;29;19981;-64
2022/04/23 08:01:08;;;;;;;;;;;25.20;35.60;;;;;;4927607;28;20017;-65
2022/04/23 08:03:35;;;;;;;;;;;25.30;35.60;;;;;;4927950;29;20409;-64
2022/04/23 08:06:03;;;;;;;;;;;25.40;35.60;;;;;;4928265;29;20377;-64
2022/04/23 08:08:30;;;;;;;;;;;25.30;35.50;;;;;;4928272;28;19927;-64
2022/04/23 08:10:57;;;;;;;;;;;25.40;35.60;;;;;;4928008;29;19973;-64
2022/04/23 08:13:24;;;;;;;;;;;25.40;35.50;;;;;;4927975;28;19927;-64
2022/04/23 08:15:51;;;;;;;;;;;25.40;35.50;;;;;;4928306;28;20375;-64
2022/04/23 08:18:19;;;;;;;;;;;25.40;35.40;;;;;;4927850;29;19927;-64
2022/04/23 08:20:47;;;;;;;;;;;25.40;35.40;;;;;;4928251;29;20453;-64
2022/04/23 08:23:16;;;;;;;;;;;25.50;35.30;;;;;;4927698;28;19959;-64
2022/04/23 08:25:45;;;;;;;;;;;25.50;35.30;;;;;;4923391;28;20437;-64
2022/04/23 08:30:59;;;;;;;;;;;25.50;35.20;;;;;;4927332;29;19970;-63
2022/04/23 08:33:57;;;;;;;;;;;25.50;35.10;;;;;;4928188;29;19974;-64
2022/04/23 08:36:13;;;;;;;;;;;25.60;35.20;;;;;;4927513;29;19927;-64
2022/04/23 08:38:40;;;;;;;;;;;25.60;35.10;;;;;;4928027;28;19966;-64
2022/04/23 08:41:08;;;;;;;;;;;25.60;35.10;;;;;;4927642;28;20437;-64
2022/04/23 08:43:36;;;;;;;;;;;25.60;35.00;;;;;;4930505;29;20014;-64
2022/04/23 08:46:03;;;;;;;;;;;25.70;35.00;;;;;;4931208;29;19981;-64
2022/04/23 08:48:35;;;;;;;;;;;25.70;34.90;;;;;;4930652;28;19927;-64
2022/04/23 08:51:03;;;;;;;;;;;25.70;35.10;;;;;;4931027;29;19970;-64
2022/04/23 08:53:31;;;;;;;;;;;25.70;35.00;;;;;;4930829;29;20417;-64
2022/04/23 08:56:00;;;;;;;;;;;25.70;35.00;;;;;;4926882;29;19931;-64
2022/04/23 08:58:27;;;;;;;;;;;25.70;34.90;;;;;;4931110;29;19950;-64
2022/04/23 09:00:54;;;;;;;;;;;25.70;34.90;;;;;;4930572;28;20394;-64
2022/04/23 09:03:22;;;;;;;;;;;25.70;34.80;;;;;;4931159;28;19930;-64
2022/04/23 09:05:50;;;;;;;;;;;25.70;34.80;;;;;;4930788;28;20428;-64
2022/04/23 09:08:17;;;;;;;;;;;25.70;34.70;;;;;;4930737;29;19927;-64
2022/04/23 09:10:45;;;;;;;;;;;25.80;34.80;;;;;;4930871;29;19977;-64
2022/04/23 09:13:29;;;;;;;;;;;25.80;34.80;;;;;;4931275;28;19958;-64
2022/04/23 09:24:46;;;;;;;;;;;25.80;34.60;;;;;;4930875;28;19966;-64
2022/04/23 09:27:13;;;;;;;;;;;25.80;34.60;;;;;;4926107;28;19985;-64
2022/04/23 09:29:42;;;;;;;;;;;25.90;34.60;;;;;;4930440;29;19970;-64
2022/04/23 09:32:10;;;;;;;;;;;25.90;34.60;;;;;;4930756;29;20034;-64
2022/04/23 09:34:37;;;;;;;;;;;25.90;34.50;;;;;;4930156;28;19934;-64
2022/04/23 09:37:05;;;;;;;;;;;26.00;34.50;;;;;;4929805;29;20291;-64
2022/04/23 09:39:34;;;;;;;;;;;26.00;34.50;;;;;;4930491;28;20037;-64
2022/04/23 09:42:17;;;;;;;;;;;26.00;34.50;;;;;;4929897;28;19937;-64
2022/04/23 09:44:45;;;;;;;;;;;26.00;35.00;;;;;;4930178;28;19996;-64
2022/04/23 09:47:29;;;;;;;;;;;26.00;34.50;;;;;;4930141;28;19963;-64
2022/04/23 09:49:57;;;;;;;;;;;26.00;34.50;;;;;;4930080;29;20298;-64
2022/04/23 09:52:29;;;;;;;;;;;26.00;34.40;;;;;;4930016;28;19927;-64
2022/04/23 09:55:17;;;;;;;;;;;26.00;34.40;;;;;;4930107;28;19927;-64
2022/04/23 09:57:46;;;;;;;;;;;26.00;34.40;;;;;;4929945;28;20427;-64
2022/04/23 10:00:13;;;;;;;;;;;26.00;34.30;;;;;;4924937;28;19937;-64
2022/04/23 10:02:41;;;;;;;;;;;26.10;34.30;;;;;;4927706;29;19933;-64
2022/04/23 10:05:10;;;;;;;;;;;26.10;34.30;;;;;;4929235;28;19934;-64
2022/04/23 10:07:38;;;;;;;;;;;26.10;34.40;;;;;;4928815;29;20017;-64
2022/04/23 10:10:08;;;;;;;;;;;26.10;34.40;;;;;;4928470;29;19927;-64
2022/04/23 10:12:36;;;;;;;;;;;26.10;34.30;;;;;;4929342;28;19988;-64
2022/04/23 10:15:04;;;;;;;;;;;26.10;34.30;;;;;;4929689;28;20417;-64
2022/04/23 10:17:31;;;;;;;;;;;26.20;34.30;;;;;;4929994;29;20146;-64
2022/04/23 10:19:59;;;;;;;;;;;26.20;34.30;;;;;;4930031;28;19970;-64
2022/04/23 10:22:34;;;;;;;;;;;26.20;34.30;;;;;;4927760;29;19981;-65
2022/04/23 10:25:08;;;;;;;;;;;26.20;34.20;;;;;;4929133;28;20275;-64
2022/04/23 10:27:36;;;;;;;;;;;26.30;34.20;;;;;;4929177;29;19927;-64
2022/04/23 10:30:06;;;;;;;;;;;26.20;34.20;;;;;;4926649;29;19927;-63
2022/04/23 10:32:40;;;;;;;;;;;26.20;34.20;;;;;;4929384;28;19931;-64
2022/04/23 10:35:26;;;;;;;;;;;26.20;34.20;;;;;;4928609;28;19985;-64
2022/04/23 10:37:54;;;;;;;;;;;26.20;34.20;;;;;;4928528;29;19988;-64
2022/04/23 10:40:22;;;;;;;;;;;26.20;34.20;;;;;;4929898;29;19931;-64
2022/04/23 10:43:07;;;;;;;;;;;26.20;34.20;;;;;;4929327;28;19973;-64
2022/04/23 10:45:35;;;;;;;;;;;26.20;34.20;;;;;;4928833;28;19981;-64
2022/04/23 10:48:25;;;;;;;;;;;26.30;34.20;;;;;;4929098;28;19937;-64
2022/04/23 10:51:00;;;;;;;;;;;26.30;34.20;;;;;;4929080;29;20464;-64
2022/04/23 10:53:28;;;;;;;;;;;26.30;34.20;;;;;;4929074;28;20432;-64
2022/04/23 10:56:13;;;;;;;;;;;26.30;34.10;;;;;;4928649;28;19984;-64
2022/04/23 10:58:43;;;;;;;;;;;26.40;34.10;;;;;;4928939;29;19953;-64
2022/04/23 11:01:20;;;;;;;;;;;26.40;34.10;;;;;;4929160;28;19973;-64
2022/04/23 11:04:10;;;;;;;;;;;26.40;34.10;;;;;;4926102;28;20453;-64
2022/04/23 11:12:34;;;;;;;;;;;26.40;34.00;;;;;;4928521;28;19970;-64
2022/04/23 11:15:01;;;;;;;;;;;26.40;34.00;;;;;;4928165;29;19981;-64
2022/04/23 11:17:48;;;;;;;;;;;26.40;34.00;;;;;;4928822;28;19962;-64
2022/04/23 11:20:30;;;;;;;;;;;26.40;34.10;;;;;;4928458;29;19966;-64
2022/04/23 11:22:58;;;;;;;;;;;26.40;34.10;;;;;;4928199;28;19945;-64
2022/04/23 11:25:25;;;;;;;;;;;26.40;34.10;;;;;;4928604;29;20049;-64
2022/04/23 11:27:53;;;;;;;;;;;26.40;34.10;;;;;;4928626;29;19927;-64
2022/04/23 11:30:28;;;;;;;;;;;26.40;34.10;;;;;;4928355;29;19926;-64
2022/04/23 11:33:08;;;;;;;;;;;26.40;34.00;;;;;;4928553;29;19926;-64
2022/04/23 11:35:36;;;;;;;;;;;26.40;34.00;;;;;;4925367;29;20365;-64
2022/04/23 11:38:03;;;;;;;;;;;26.40;34.00;;;;;;4928629;29;19931;-64
2022/04/23 11:40:34;;;;;;;;;;;26.40;34.00;;;;;;4927705;29;19962;-64
2022/04/23 11:43:01;;;;;;;;;;;26.40;34.00;;;;;;4928230;28;19985;-64
2022/04/23 11:45:28;;;;;;;;;;;26.40;34.10;;;;;;4928178;28;19927;-64
2022/04/23 11:47:55;;;;;;;;;;;26.40;34.10;;;;;;4927954;28;19931;-64
2022/04/23 11:50:23;;;;;;;;;;;26.30;34.10;;;;;;4929014;28;19969;-64
2022/04/23 11:52:57;;;;;;;;;;;26.30;34.20;;;;;;4928259;28;19954;-64
2022/04/23 11:55:26;;;;;;;;;;;26.20;34.20;;;;;;4928810;28;19934;-64
2022/04/23 11:57:56;;;;;;;;;;;26.20;34.30;;;;;;4926744;29;20034;-64
2022/04/23 12:00:24;;;;;;;;;;;26.20;34.30;;;;;;4928442;28;19951;-64
2022/04/23 12:02:53;;;;;;;;;;;26.20;34.30;;;;;;4928518;28;20345;-64
2022/04/23 12:05:25;;;;;;;;;;;26.20;34.30;;;;;;4924480;29;19939;-64
2022/04/23 12:07:52;;;;;;;;;;;26.10;34.30;;;;;;4928111;28;19927;-64
2022/04/23 12:10:23;;;;;;;;;;;26.20;34.30;;;;;;4927551;29;19974;-64
2022/04/23 12:12:51;;;;;;;;;;;26.20;34.30;;;;;;4927818;29;19927;-64
2022/04/23 12:15:20;;;;;;;;;;;26.30;34.30;;;;;;4928533;29;20340;-64
2022/04/23 12:17:49;;;;;;;;;;;26.30;34.20;;;;;;4930764;29;20414;-65
2022/04/23 12:20:19;;;;;;;;;;;26.30;34.20;;;;;;4931363;28;20489;-64
2022/04/23 12:23:06;;;;;;;;;;;26.30;34.20;;;;;;4931272;29;19973;-65
2022/04/23 12:25:33;;;;;;;;;;;26.30;34.20;;;;;;4930978;29;20378;-64
2022/04/23 12:28:03;;;;;;;;;;;26.30;34.20;;;;;;4930962;29;20037;-64
2022/04/23 12:42:03;;;;;;;;;;;26.40;34.20;;;;;;4931187;29;20013;-64
2022/04/23 12:44:41;;;;;;;;;;;26.40;34.10;;;;;;4931021;28;20353;-64
2022/04/23 12:47:09;;;;;;;;;;;26.40;34.10;;;;;;4931396;28;20009;-64
2022/04/23 12:49:50;;;;;;;;;;;26.50;34.10;;;;;;4930751;28;19973;-64
2022/04/23 12:52:21;;;;;;;;;;;26.50;34.00;;;;;;4931037;28;19984;-64
2022/04/23 12:55:08;;;;;;;;;;;26.50;34.00;;;;;;4931161;29;19927;-64
2022/04/23 12:57:35;;;;;;;;;;;26.50;34.00;;;;;;4930972;29;19981;-64
2022/04/23 13:00:03;;;;;;;;;;;26.50;34.10;;;;;;4930262;28;20387;-64
2022/04/23 13:02:35;;;;;;;;;;;26.40;34.10;;;;;;4930844;28;19957;-64
2022/04/23 13:05:03;;;;;;;;;;;26.40;34.20;;;;;;4930729;28;19930;-64
2022/04/23 13:10:18;;;;;;;;;;;26.40;34.20;;;;;;4926378;28;19966;-64
2022/04/23 13:12:45;;;;;;;;;;;26.40;34.20;;;;;;4930805;28;20007;-64
2022/04/23 13:15:15;;;;;;;;;;;26.40;34.70;;;;;;4931059;28;19949;-64
2022/04/23 13:17:43;;;;;;;;;;;26.40;34.20;;;;;;4930577;29;20383;-64
2022/04/23 13:20:11;;;;;;;;;;;26.40;34.20;;;;;;4930036;28;20386;-64
2022/04/23 13:22:38;;;;;;;;;;;26.40;34.20;;;;;;4930277;28;19933;-64
2022/04/23 13:25:11;;;;;;;;;;;26.40;34.20;;;;;;4930297;28;19930;-64
2022/04/23 13:27:38;;;;;;;;;;;26.40;34.20;;;;;;4930091;28;20396;-64
2022/04/23 13:30:05;;;;;;;;;;;26.40;34.20;;;;;;4928872;29;19966;-64
2022/04/23 13:32:34;;;;;;;;;;;26.40;34.20;;;;;;4930258;28;19927;-64
2022/04/23 13:35:02;;;;;;;;;;;26.40;34.20;;;;;;4930697;28;19934;-64
2022/04/23 13:37:29;;;;;;;;;;;26.30;34.20;;;;;;4929980;28;20383;-64
2022/04/23 13:39:56;;;;;;;;;;;26.30;34.20;;;;;;4928593;28;20383;-64
2022/04/23 13:42:27;;;;;;;;;;;26.30;34.20;;;;;;4928074;29;20025;-64
2022/04/23 13:44:55;;;;;;;;;;;26.30;34.20;;;;;;4930385;28;19962;-64
2022/04/23 13:47:22;;;;;;;;;;;26.40;34.20;;;;;;4930049;28;19973;-64
2022/04/23 13:49:50;;;;;;;;;;;26.40;34.10;;;;;;4930147;28;19926;-64
2022/04/23 13:52:17;;;;;;;;;;;26.40;34.20;;;;;;4928194;29;19927;-64
2022/04/23 13:54:44;;;;;;;;;;;26.40;34.20;;;;;;4929897;28;19970;-64
2022/04/23 13:57:11;;;;;;;;;;;26.40;34.10;;;;;;4929560;29;19985;-64
2022/04/23 13:59:38;;;;;;;;;;;26.40;34.10;;;;;;4930022;28;19930;-64
2022/04/23 14:10:26;;;;;;;;;;;26.40;34.10;;;;;;4929482;28;19933;-64
2022/04/23 14:12:53;;;;;;;;;;;26.40;34.10;;;;;;4925069;29;19981;-64
2022/04/23 14:15:20;;;;;;;;;;;26.40;34.10;;;;;;4929695;28;20001;-64
2022/04/23 14:17:48;;;;;;;;;;;26.40;34.10;;;;;;4929273;28;19954;-64
2022/04/23 14:20:15;;;;;;;;;;;26.40;34.20;;;;;;4929996;28;19945;-64
2022/04/23 14:22:42;;;;;;;;;;;26.30;34.20;;;;;;4929459;29;20025;-64
2022/04/23 14:25:09;;;;;;;;;;;26.30;34.20;;;;;;4929283;29;20025;-64
2022/04/23 14:27:37;;;;;;;;;;;26.30;34.20;;;;;;4929378;29;19927;-64
2022/04/23 14:30:05;;;;;;;;;;;26.30;34.20;;;;;;4929330;28;19973;-64
2022/04/23 14:32:32;;;;;;;;;;;26.30;34.20;;;;;;4929729;29;20350;-64
2022/04/23 14:34:59;;;;;;;;;;;26.30;34.20;;;;;;4929330;29;20328;-64
2022/04/23 14:37:33;;;;;;;;;;;26.30;34.20;;;;;;4929068;29;20306;-64
2022/04/23 14:40:00;;;;;;;;;;;26.20;34.20;;;;;;4928357;28;19927;-64
2022/04/23 14:42:28;;;;;;;;;;;26.20;34.30;;;;;;4929309;29;19934;-64
2022/04/23 14:44:54;;;;;;;;;;;26.20;34.30;;;;;;4924987;28;20022;-64
2022/04/23 14:47:22;;;;;;;;;;;26.20;34.30;;;;;;4929613;28;20402;-64
2022/04/23 14:49:49;;;;;;;;;;;26.20;34.30;;;;;;4929400;29;19954;-64
2022/04/23 14:55:06;;;;;;;;;;;26.20;34.30;;;;;;4929302;29;20417;-64
2022/04/23 14:57:33;;;;;;;;;;;26.20;34.30;;;;;;4929224;29;19926;-64
2022/04/23 15:00:00;;;;;;;;;;;26.20;34.30;;;;;;4929337;28;20013;-64
2022/04/23 15:02:27;;;;;;;;;;;26.20;34.30;;;;;;4927684;29;19927;-64
2022/04/23 15:04:54;;;;;;;;;;;26.20;34.30;;;;;;4928950;28;20397;-64
2022/04/23 15:07:24;;;;;;;;;;;26.20;34.30;;;;;;4928869;28;19927;-64
2022/04/23 15:09:51;;;;;;;;;;;26.20;34.40;;;;;;4928717;28;20022;-64
2022/04/23 15:12:27;;;;;;;;;;;26.20;34.40;;;;;;4929228;28;20311;-64
2022/04/23 15:14:54;;;;;;;;;;;26.10;34.30;;;;;;4927058;28;19981;-64
2022/04/23 15:17:22;;;;;;;;;;;26.20;34.40;;;;;;4926774;29;19927;-64